sensor_id;sensor_type;location;lat;lon;timestamp;temperature;humidity
6355;DHT22;3210;48.708;9.030;2023-04-01T00:01:33;7.70;99.90
6355;DHT22;3210;48.708;9.030;2023-04-01T00:03:59;7.70;99.90
6355;DHT22;3210;48.708;9.030;2023-04-01T00:06:27;7.80;99.90
6355;DHT22;3210;48.708;9.030;2023-04-01T00:08:54;7.80;99.90
6355;DHT22;3210;48.708;9.030;2023-04-01T00:11:21;7.80;99.90
6355;DHT22;3210;48.708;9.030;2023-04-01T00:13:48;7.80;99.90
6355;DHT22;3210;48.708;9.030;2023-04-01T00:16:16;7.70;99.90
6355;DHT22;3210;48.708;9.030;2023-04-01T00:18:43;7.80;99.90
6355;DHT22;3210;48.708;9.030;2023-04-01T00:21:12;7.70;99.90
6355;DHT22;3210;48.708;9.030;2023-04-01T00:23:39;7.80;99.90
6355;DHT22;3210;48.708;9.030;2023-04-01T00:26:06;7.70;99.90
6355;DHT22;3210;48.708;9.030;2023-04-01T00:28:33;7.80;99.90
6355;DHT22;3210;48.708;9.030;2023-04-01T00:31:04;7.70;99.90
6355;DHT22;3210;48.708;9.030;2023-04-01T00:33:33;7.70;99.90
6355;DHT22;3210;48.708;9.030;2023-04-01T00:36:06;7.70;99.90
6355;DHT22;3210;48.708;9.030;2023-04-01T00:38:33;7.70;99.90
6355;DHT22;3210;48.708;9.030;2023-04-01T00:41:00;7.80;99.90
6355;DHT22;3210;48.708;9.030;2023-04-01T00:43:27;7.70;99.90
6355;DHT22;3210;48.708;9.030;2023-04-01T00:45:54;7.70;99.90
6355;DHT22;3210;48.708;9.030;2023-04-01T00:48:23;7.70;99.90
6355;DHT22;3210;48.708;9.030;2023-04-01T00:50:54;7.80;99.90
6355;DHT22;3210;48.708;9.030;2023-04-01T00:53:23;7.80;99.90
6355;DHT22;3210;48.708;9.030;2023-04-01T00:55:54;7.70;99.90
6355;DHT22;3210;48.708;9.030;2023-04-01T00:58:24;7.70;99.90
6355;DHT22;3210;48.708;9.030;2023-04-01T01:00:54;7.70;99.90
6355;DHT22;3210;48.708;9.030;2023-04-01T01:03:21;7.70;99.90
6355;DHT22;3210;48.708;9.030;2023-04-01T01:06:02;7.60;99.90
6355;DHT22;3210;48.708;9.030;2023-04-01T01:11:37;7.70;99.90
6355;DHT22;3210;48.708;9.030;2023-04-01T01:14:11;7.50;99.90
6355;DHT22;3210;48.708;9.030;2023-04-01T01:16:44;7.60;99.90
6355;DHT22;3210;48.708;9.030;2023-04-01T01:19:31;7.60;99.90
6355;DHT22;3210;48.708;9.030;2023-04-01T01:22:33;7.60;99.90
6355;DHT22;3210;48.708;9.030;2023-04-01T01:25:14;7.60;99.90
6355;DHT22;3210;48.708;9.030;2023-04-01T01:27:49;7.60;99.90
6355;DHT22;3210;48.708;9.030;2023-04-01T01:30:30;7.60;99.90
6355;DHT22;3210;48.708;9.030;2023-04-01T01:33:15;7.60;99.90
6355;DHT22;3210;48.708;9.030;2023-04-01T01:35:49;7.60;99.90
6355;DHT22;3210;48.708;9.030;2023-04-01T01:38:19;7.60;99.90
6355;DHT22;3210;48.708;9.030;2023-04-01T01:40:49;7.60;99.90
6355;DHT22;3210;48.708;9.030;2023-04-01T01:43:23;7.60;99.90
6355;DHT22;3210;48.708;9.030;2023-04-01T01:45:53;7.50;99.90
6355;DHT22;3210;48.708;9.030;2023-04-01T01:48:22;7.50;99.90
6355;DHT22;3210;48.708;9.030;2023-04-01T01:50:51;7.50;99.90
6355;DHT22;3210;48.708;9.030;2023-04-01T01:53:18;7.50;99.90
6355;DHT22;3210;48.708;9.030;2023-04-01T01:55:46;7.40;99.90
6355;DHT22;3210;48.708;9.030;2023-04-01T01:58:17;7.50;99.90
6355;DHT22;3210;48.708;9.030;2023-04-01T02:00:49;7.50;99.90
6355;DHT22;3210;48.708;9.030;2023-04-01T02:03:17;7.50;99.90
6355;DHT22;3210;48.708;9.030;2023-04-01T02:05:46;7.50;99.90
6355;DHT22;3210;48.708;9.030;2023-04-01T02:08:17;7.30;99.90
6355;DHT22;3210;48.708;9.030;2023-04-01T02:10:52;7.40;99.90
6355;DHT22;3210;48.708;9.030;2023-04-01T02:13:27;7.40;99.90
6355;DHT22;3210;48.708;9.030;2023-04-01T02:15:59;7.40;99.90
6355;DHT22;3210;48.708;9.030;2023-04-01T02:18:28;7.50;99.90
6355;DHT22;3210;48.708;9.030;2023-04-01T02:20:57;7.50;99.90
6355;DHT22;3210;48.708;9.030;2023-04-01T02:23:28;7.50;99.90
6355;DHT22;3210;48.708;9.030;2023-04-01T02:25:55;7.60;99.90
6355;DHT22;3210;48.708;9.030;2023-04-01T02:28:22;7.50;99.90
6355;DHT22;3210;48.708;9.030;2023-04-01T02:30:50;7.50;99.90
6355;DHT22;3210;48.708;9.030;2023-04-01T02:33:19;7.40;99.90
6355;DHT22;3210;48.708;9.030;2023-04-01T02:35:46;7.40;99.90
6355;DHT22;3210;48.708;9.030;2023-04-01T02:38:13;7.40;99.90
6355;DHT22;3210;48.708;9.030;2023-04-01T02:40:44;7.30;99.90
6355;DHT22;3210;48.708;9.030;2023-04-01T02:43:12;7.40;99.90
6355;DHT22;3210;48.708;9.030;2023-04-01T02:45:39;7.30;99.90
6355;DHT22;3210;48.708;9.030;2023-04-01T02:48:06;7.40;99.90
6355;DHT22;3210;48.708;9.030;2023-04-01T02:50:32;7.40;99.90
6355;DHT22;3210;48.708;9.030;2023-04-01T02:53:00;7.40;99.90
6355;DHT22;3210;48.708;9.030;2023-04-01T02:55:28;7.40;99.90
6355;DHT22;3210;48.708;9.030;2023-04-01T02:57:57;7.30;99.90
6355;DHT22;3210;48.708;9.030;2023-04-01T03:00:24;7.40;99.90
6355;DHT22;3210;48.708;9.030;2023-04-01T03:02:50;7.40;99.90
6355;DHT22;3210;48.708;9.030;2023-04-01T03:05:18;7.40;99.90
6355;DHT22;3210;48.708;9.030;2023-04-01T03:07:45;7.40;99.90
6355;DHT22;3210;48.708;9.030;2023-04-01T03:10:12;7.40;99.90
6355;DHT22;3210;48.708;9.030;2023-04-01T03:12:39;7.40;99.90
6355;DHT22;3210;48.708;9.030;2023-04-01T03:15:09;7.30;99.90
6355;DHT22;3210;48.708;9.030;2023-04-01T03:17:36;7.30;99.90
6355;DHT22;3210;48.708;9.030;2023-04-01T03:20:04;7.20;99.90
6355;DHT22;3210;48.708;9.030;2023-04-01T03:22:31;7.30;99.90
6355;DHT22;3210;48.708;9.030;2023-04-01T03:24:58;7.30;99.90
6355;DHT22;3210;48.708;9.030;2023-04-01T03:27:24;7.30;99.90
6355;DHT22;3210;48.708;9.030;2023-04-01T03:29:51;7.30;99.90
6355;DHT22;3210;48.708;9.030;2023-04-01T03:32:19;7.30;99.90
6355;DHT22;3210;48.708;9.030;2023-04-01T03:34:46;7.30;99.90
6355;DHT22;3210;48.708;9.030;2023-04-01T03:37:13;7.30;99.90
6355;DHT22;3210;48.708;9.030;2023-04-01T03:39:40;7.30;99.90
6355;DHT22;3210;48.708;9.030;2023-04-01T03:42:07;7.30;99.90
6355;DHT22;3210;48.708;9.030;2023-04-01T03:44:34;7.40;99.90
6355;DHT22;3210;48.708;9.030;2023-04-01T03:47:01;7.30;99.90
6355;DHT22;3210;48.708;9.030;2023-04-01T03:49:29;7.30;99.90
6355;DHT22;3210;48.708;9.030;2023-04-01T03:51:57;7.30;99.90
6355;DHT22;3210;48.708;9.030;2023-04-01T03:54:24;7.30;99.90
6355;DHT22;3210;48.708;9.030;2023-04-01T03:56:51;7.20;99.90
6355;DHT22;3210;48.708;9.030;2023-04-01T03:59:18;7.20;99.90
6355;DHT22;3210;48.708;9.030;2023-04-01T04:01:46;7.20;99.90
6355;DHT22;3210;48.708;9.030;2023-04-01T04:04:13;7.10;99.90
6355;DHT22;3210;48.708;9.030;2023-04-01T04:06:41;7.00;99.90
6355;DHT22;3210;48.708;9.030;2023-04-01T04:09:08;7.20;99.90
6355;DHT22;3210;48.708;9.030;2023-04-01T04:11:35;7.00;99.90
6355;DHT22;3210;48.708;9.030;2023-04-01T04:14:01;7.00;99.90
6355;DHT22;3210;48.708;9.030;2023-04-01T04:16:28;7.00;99.90
6355;DHT22;3210;48.708;9.030;2023-04-01T04:18:55;7.00;99.90
6355;DHT22;3210;48.708;9.030;2023-04-01T04:21:22;7.00;99.90
6355;DHT22;3210;48.708;9.030;2023-04-01T04:23:50;7.00;99.90
6355;DHT22;3210;48.708;9.030;2023-04-01T04:26:17;7.00;99.90
6355;DHT22;3210;48.708;9.030;2023-04-01T04:28:44;6.90;99.90
6355;DHT22;3210;48.708;9.030;2023-04-01T04:31:11;6.90;99.90
6355;DHT22;3210;48.708;9.030;2023-04-01T04:33:37;6.90;99.90
6355;DHT22;3210;48.708;9.030;2023-04-01T04:36:05;6.90;99.90
6355;DHT22;3210;48.708;9.030;2023-04-01T04:38:32;6.80;99.90
6355;DHT22;3210;48.708;9.030;2023-04-01T04:41:00;6.80;99.90
6355;DHT22;3210;48.708;9.030;2023-04-01T04:43:27;6.80;99.90
6355;DHT22;3210;48.708;9.030;2023-04-01T04:45:53;6.80;99.90
6355;DHT22;3210;48.708;9.030;2023-04-01T04:48:20;6.80;99.90
6355;DHT22;3210;48.708;9.030;2023-04-01T04:50:48;6.70;99.90
6355;DHT22;3210;48.708;9.030;2023-04-01T04:53:15;6.90;99.90
6355;DHT22;3210;48.708;9.030;2023-04-01T04:55:43;6.80;99.90
6355;DHT22;3210;48.708;9.030;2023-04-01T04:58:13;6.80;99.90
6355;DHT22;3210;48.708;9.030;2023-04-01T05:00:40;6.80;99.90
6355;DHT22;3210;48.708;9.030;2023-04-01T05:03:07;6.80;99.90
6355;DHT22;3210;48.708;9.030;2023-04-01T05:05:34;6.80;99.90
6355;DHT22;3210;48.708;9.030;2023-04-01T05:08:01;6.80;99.90
6355;DHT22;3210;48.708;9.030;2023-04-01T05:10:28;6.90;99.90
6355;DHT22;3210;48.708;9.030;2023-04-01T05:12:56;6.90;99.90
6355;DHT22;3210;48.708;9.030;2023-04-01T05:15:24;7.00;99.90
6355;DHT22;3210;48.708;9.030;2023-04-01T05:17:51;7.10;99.90
6355;DHT22;3210;48.708;9.030;2023-04-01T05:20:18;7.10;99.90
6355;DHT22;3210;48.708;9.030;2023-04-01T05:22:44;7.10;99.90
6355;DHT22;3210;48.708;9.030;2023-04-01T05:25:11;7.20;99.90
6355;DHT22;3210;48.708;9.030;2023-04-01T05:27:38;7.20;99.90
6355;DHT22;3210;48.708;9.030;2023-04-01T05:30:06;7.20;99.90
6355;DHT22;3210;48.708;9.030;2023-04-01T05:32:34;7.30;99.90
6355;DHT22;3210;48.708;9.030;2023-04-01T05:35:01;7.30;99.90
6355;DHT22;3210;48.708;9.030;2023-04-01T05:37:28;7.30;99.90
6355;DHT22;3210;48.708;9.030;2023-04-01T05:39:54;7.40;99.90
6355;DHT22;3210;48.708;9.030;2023-04-01T05:42:21;7.40;99.90
6355;DHT22;3210;48.708;9.030;2023-04-01T05:44:48;7.40;99.90
6355;DHT22;3210;48.708;9.030;2023-04-01T05:47:15;7.50;99.90
6355;DHT22;3210;48.708;9.030;2023-04-01T05:49:43;7.50;99.90
6355;DHT22;3210;48.708;9.030;2023-04-01T05:52:09;7.50;99.90
6355;DHT22;3210;48.708;9.030;2023-04-01T05:54:36;7.60;99.90
6355;DHT22;3210;48.708;9.030;2023-04-01T05:57:03;7.70;99.90
6355;DHT22;3210;48.708;9.030;2023-04-01T05:59:30;7.80;99.90
6355;DHT22;3210;48.708;9.030;2023-04-01T06:01:57;7.80;99.90
6355;DHT22;3210;48.708;9.030;2023-04-01T06:04:24;7.90;93.40
6355;DHT22;3210;48.708;9.030;2023-04-01T06:06:53;7.90;94.80
6355;DHT22;3210;48.708;9.030;2023-04-01T06:09:23;7.90;86.50
6355;DHT22;3210;48.708;9.030;2023-04-01T06:12:16;8.00;82.50
6355;DHT22;3210;48.708;9.030;2023-04-01T06:14:49;8.00;79.10
6355;DHT22;3210;48.708;9.030;2023-04-01T06:17:26;7.90;80.00
6355;DHT22;3210;48.708;9.030;2023-04-01T06:20:01;8.00;74.80
6355;DHT22;3210;48.708;9.030;2023-04-01T06:22:54;8.20;79.30
6355;DHT22;3210;48.708;9.030;2023-04-01T06:25:42;8.10;72.40
6355;DHT22;3210;48.708;9.030;2023-04-01T06:28:58;8.10;71.00
6355;DHT22;3210;48.708;9.030;2023-04-01T06:31:47;8.10;73.10
6355;DHT22;3210;48.708;9.030;2023-04-01T06:34:31;8.10;74.40
6355;DHT22;3210;48.708;9.030;2023-04-01T06:37:10;8.10;73.90
6355;DHT22;3210;48.708;9.030;2023-04-01T06:39:59;8.10;75.10
6355;DHT22;3210;48.708;9.030;2023-04-01T06:42:58;8.10;77.20
6355;DHT22;3210;48.708;9.030;2023-04-01T06:45:34;8.20;81.90
6355;DHT22;3210;48.708;9.030;2023-04-01T06:48:18;8.10;81.70
6355;DHT22;3210;48.708;9.030;2023-04-01T06:50:54;8.10;79.10
6355;DHT22;3210;48.708;9.030;2023-04-01T06:53:28;8.10;86.90
6355;DHT22;3210;48.708;9.030;2023-04-01T06:56:02;8.10;94.50
6355;DHT22;3210;48.708;9.030;2023-04-01T06:58:37;8.20;83.20
6355;DHT22;3210;48.708;9.030;2023-04-01T07:01:08;8.10;80.60
6355;DHT22;3210;48.708;9.030;2023-04-01T07:03:39;8.10;86.10
6355;DHT22;3210;48.708;9.030;2023-04-01T07:06:11;8.20;88.10
6355;DHT22;3210;48.708;9.030;2023-04-01T07:08:40;8.20;89.90
6355;DHT22;3210;48.708;9.030;2023-04-01T07:11:14;8.20;91.00
6355;DHT22;3210;48.708;9.030;2023-04-01T07:13:47;8.40;90.60
6355;DHT22;3210;48.708;9.030;2023-04-01T07:16:18;8.40;82.30
6355;DHT22;3210;48.708;9.030;2023-04-01T07:18:48;8.50;93.20
6355;DHT22;3210;48.708;9.030;2023-04-01T07:21:25;8.40;92.30
6355;DHT22;3210;48.708;9.030;2023-04-01T07:23:56;8.40;90.80
6355;DHT22;3210;48.708;9.030;2023-04-01T07:26:25;8.40;93.50
6355;DHT22;3210;48.708;9.030;2023-04-01T07:28:53;8.30;90.50
6355;DHT22;3210;48.708;9.030;2023-04-01T07:31:31;8.20;91.30
6355;DHT22;3210;48.708;9.030;2023-04-01T07:34:08;8.20;94.70
6355;DHT22;3210;48.708;9.030;2023-04-01T07:36:41;8.20;93.10
6355;DHT22;3210;48.708;9.030;2023-04-01T07:39:21;8.10;92.90
6355;DHT22;3210;48.708;9.030;2023-04-01T07:41:58;8.20;96.80
6355;DHT22;3210;48.708;9.030;2023-04-01T07:44:33;8.20;95.70
6355;DHT22;3210;48.708;9.030;2023-04-01T07:47:17;8.30;98.90
6355;DHT22;3210;48.708;9.030;2023-04-01T07:49:57;8.30;96.80
6355;DHT22;3210;48.708;9.030;2023-04-01T07:52:35;8.30;95.30
6355;DHT22;3210;48.708;9.030;2023-04-01T07:55:07;8.30;96.60
6355;DHT22;3210;48.708;9.030;2023-04-01T07:57:45;8.40;99.90
6355;DHT22;3210;48.708;9.030;2023-04-01T08:00:18;8.50;99.90
6355;DHT22;3210;48.708;9.030;2023-04-01T08:03:03;8.50;99.30
6355;DHT22;3210;48.708;9.030;2023-04-01T08:05:37;8.50;99.90
6355;DHT22;3210;48.708;9.030;2023-04-01T08:08:14;8.50;99.90
6355;DHT22;3210;48.708;9.030;2023-04-01T08:10:47;8.60;99.90
6355;DHT22;3210;48.708;9.030;2023-04-01T08:13:24;8.60;99.90
6355;DHT22;3210;48.708;9.030;2023-04-01T08:15:59;8.60;99.90
6355;DHT22;3210;48.708;9.030;2023-04-01T08:18:36;8.70;99.90
6355;DHT22;3210;48.708;9.030;2023-04-01T08:21:10;8.60;99.90
6355;DHT22;3210;48.708;9.030;2023-04-01T08:23:41;8.60;99.90
6355;DHT22;3210;48.708;9.030;2023-04-01T08:26:23;8.60;99.90
6355;DHT22;3210;48.708;9.030;2023-04-01T08:28:57;8.60;99.90
6355;DHT22;3210;48.708;9.030;2023-04-01T08:31:39;8.60;99.90
6355;DHT22;3210;48.708;9.030;2023-04-01T08:34:14;8.60;99.90
6355;DHT22;3210;48.708;9.030;2023-04-01T08:36:45;8.50;99.90
6355;DHT22;3210;48.708;9.030;2023-04-01T08:39:18;8.50;99.90
6355;DHT22;3210;48.708;9.030;2023-04-01T08:42:21;8.40;99.90
6355;DHT22;3210;48.708;9.030;2023-04-01T08:48:07;8.20;99.90
6355;DHT22;3210;48.708;9.030;2023-04-01T08:51:10;8.20;99.90
6355;DHT22;3210;48.708;9.030;2023-04-01T08:54:04;8.00;99.90
6355;DHT22;3210;48.708;9.030;2023-04-01T08:56:40;8.10;99.90
6355;DHT22;3210;48.708;9.030;2023-04-01T08:59:24;8.20;99.90
6355;DHT22;3210;48.708;9.030;2023-04-01T09:05:03;8.40;99.90
6355;DHT22;3210;48.708;9.030;2023-04-01T09:07:40;8.50;99.90
6355;DHT22;3210;48.708;9.030;2023-04-01T09:10:21;8.70;99.90
6355;DHT22;3210;48.708;9.030;2023-04-01T09:13:01;8.80;99.90
6355;DHT22;3210;48.708;9.030;2023-04-01T09:19:11;8.70;99.90
6355;DHT22;3210;48.708;9.030;2023-04-01T09:21:57;8.70;99.90
6355;DHT22;3210;48.708;9.030;2023-04-01T09:24:52;9.00;99.90
6355;DHT22;3210;48.708;9.030;2023-04-01T09:27:30;9.40;99.90
6355;DHT22;3210;48.708;9.030;2023-04-01T09:36:22;9.50;99.90
6355;DHT22;3210;48.708;9.030;2023-04-01T09:38:57;9.30;99.90
6355;DHT22;3210;48.708;9.030;2023-04-01T09:41:29;9.30;99.90
6355;DHT22;3210;48.708;9.030;2023-04-01T09:44:04;9.10;99.40
6355;DHT22;3210;48.708;9.030;2023-04-01T09:46:55;8.90;97.00
6355;DHT22;3210;48.708;9.030;2023-04-01T09:52:25;8.90;99.90
6355;DHT22;3210;48.708;9.030;2023-04-01T09:55:04;8.90;99.50
6355;DHT22;3210;48.708;9.030;2023-04-01T09:57:58;8.80;99.90
6355;DHT22;3210;48.708;9.030;2023-04-01T10:01:10;8.70;99.90
6355;DHT22;3210;48.708;9.030;2023-04-01T10:07:30;8.70;99.90
6355;DHT22;3210;48.708;9.030;2023-04-01T10:10:39;8.70;99.90
6355;DHT22;3210;48.708;9.030;2023-04-01T10:13:32;8.70;99.90
6355;DHT22;3210;48.708;9.030;2023-04-01T10:16:23;8.80;95.40
6355;DHT22;3210;48.708;9.030;2023-04-01T10:19:17;8.80;86.50
6355;DHT22;3210;48.708;9.030;2023-04-01T10:28:14;9.20;97.90
6355;DHT22;3210;48.708;9.030;2023-04-01T10:34:10;9.50;89.50
6355;DHT22;3210;48.708;9.030;2023-04-01T10:36:53;9.60;82.20
6355;DHT22;3210;48.708;9.030;2023-04-01T10:48:41;10.20;48.00
6355;DHT22;3210;48.708;9.030;2023-04-01T10:51:25;10.10;52.90
6355;DHT22;3210;48.708;9.030;2023-04-01T10:54:14;10.00;37.70
6355;DHT22;3210;48.708;9.030;2023-04-01T10:56:50;9.80;31.80
6355;DHT22;3210;48.708;9.030;2023-04-01T11:00:02;9.90;34.90
6355;DHT22;3210;48.708;9.030;2023-04-01T11:03:16;9.70;37.40
6355;DHT22;3210;48.708;9.030;2023-04-01T11:06:23;9.60;32.60
6355;DHT22;3210;48.708;9.030;2023-04-01T11:12:26;9.60;39.30
6355;DHT22;3210;48.708;9.030;2023-04-01T11:15:37;9.60;34.30
6355;DHT22;3210;48.708;9.030;2023-04-01T11:21:48;9.80;29.50
6355;DHT22;3210;48.708;9.030;2023-04-01T11:24:26;9.80;26.60
6355;DHT22;3210;48.708;9.030;2023-04-01T11:27:06;9.80;31.00
6355;DHT22;3210;48.708;9.030;2023-04-01T11:29:47;9.80;30.00
6355;DHT22;3210;48.708;9.030;2023-04-01T11:32:26;9.70;31.50
6355;DHT22;3210;48.708;9.030;2023-04-01T11:35:15;9.80;21.40
6355;DHT22;3210;48.708;9.030;2023-04-01T11:37:54;9.70;25.90
6355;DHT22;3210;48.708;9.030;2023-04-01T11:40:29;9.80;28.40
6355;DHT22;3210;48.708;9.030;2023-04-01T11:43:04;9.90;24.30
6355;DHT22;3210;48.708;9.030;2023-04-01T11:45:37;9.90;23.60
6355;DHT22;3210;48.708;9.030;2023-04-01T11:48:17;9.80;21.00
6355;DHT22;3210;48.708;9.030;2023-04-01T11:51:20;9.70;22.40
6355;DHT22;3210;48.708;9.030;2023-04-01T11:53:58;9.70;19.40
6355;DHT22;3210;48.708;9.030;2023-04-01T11:56:43;9.80;25.70
6355;DHT22;3210;48.708;9.030;2023-04-01T11:59:57;9.70;23.20
6355;DHT22;3210;48.708;9.030;2023-04-01T12:02:35;9.70;37.10
6355;DHT22;3210;48.708;9.030;2023-04-01T12:05:22;9.80;41.20
6355;DHT22;3210;48.708;9.030;2023-04-01T12:08:02;9.80;23.30
6355;DHT22;3210;48.708;9.030;2023-04-01T12:10:39;9.90;19.10
6355;DHT22;3210;48.708;9.030;2023-04-01T12:13:14;9.90;19.80
6355;DHT22;3210;48.708;9.030;2023-04-01T12:15:55;10.00;19.10
6355;DHT22;3210;48.708;9.030;2023-04-01T12:18:27;9.80;25.10
6355;DHT22;3210;48.708;9.030;2023-04-01T12:21:06;9.70;23.90
6355;DHT22;3210;48.708;9.030;2023-04-01T12:24:10;9.70;28.40
6355;DHT22;3210;48.708;9.030;2023-04-01T12:26:53;9.80;23.70
6355;DHT22;3210;48.708;9.030;2023-04-01T12:29:44;9.70;26.80
6355;DHT22;3210;48.708;9.030;2023-04-01T12:32:23;9.60;28.20
6355;DHT22;3210;48.708;9.030;2023-04-01T12:35:04;9.50;40.20
6355;DHT22;3210;48.708;9.030;2023-04-01T12:37:44;9.50;37.70
6355;DHT22;3210;48.708;9.030;2023-04-01T12:40:45;9.60;32.70
6355;DHT22;3210;48.708;9.030;2023-04-01T12:43:40;9.60;26.80
6355;DHT22;3210;48.708;9.030;2023-04-01T12:46:16;9.70;32.90
6355;DHT22;3210;48.708;9.030;2023-04-01T12:51:57;9.90;20.40
6355;DHT22;3210;48.708;9.030;2023-04-01T12:54:57;10.20;23.20
6355;DHT22;3210;48.708;9.030;2023-04-01T13:00:35;10.30;12.10
6355;DHT22;3210;48.708;9.030;2023-04-01T13:03:24;10.40;13.50
6355;DHT22;3210;48.708;9.030;2023-04-01T13:06:20;10.50;12.30
6355;DHT22;3210;48.708;9.030;2023-04-01T13:08:56;10.70;12.10
6355;DHT22;3210;48.708;9.030;2023-04-01T13:11:37;10.60;4.90
6355;DHT22;3210;48.708;9.030;2023-04-01T13:14:24;10.50;8.20
6355;DHT22;3210;48.708;9.030;2023-04-01T13:16:58;10.50;8.50
6355;DHT22;3210;48.708;9.030;2023-04-01T13:19:33;10.40;13.10
6355;DHT22;3210;48.708;9.030;2023-04-01T13:22:07;10.40;23.00
6355;DHT22;3210;48.708;9.030;2023-04-01T13:24:41;10.40;11.70
6355;DHT22;3210;48.708;9.030;2023-04-01T13:27:17;10.40;8.40
6355;DHT22;3210;48.708;9.030;2023-04-01T13:29:55;10.30;7.40
6355;DHT22;3210;48.708;9.030;2023-04-01T13:32:29;10.30;12.30
6355;DHT22;3210;48.708;9.030;2023-04-01T13:35:10;10.20;5.20
6355;DHT22;3210;48.708;9.030;2023-04-01T13:37:54;10.10;4.70
6355;DHT22;3210;48.708;9.030;2023-04-01T13:40:35;10.20;21.90
6355;DHT22;3210;48.708;9.030;2023-04-01T13:43:10;10.30;5.00
6355;DHT22;3210;48.708;9.030;2023-04-01T13:45:55;10.40;5.60
6355;DHT22;3210;48.708;9.030;2023-04-01T13:48:32;10.20;4.10
6355;DHT22;3210;48.708;9.030;2023-04-01T13:51:28;10.50;5.40
6355;DHT22;3210;48.708;9.030;2023-04-01T13:54:25;10.50;12.00
6355;DHT22;3210;48.708;9.030;2023-04-01T13:57:06;10.50;1.00
6355;DHT22;3210;48.708;9.030;2023-04-01T14:02:50;10.30;1.00
6355;DHT22;3210;48.708;9.030;2023-04-01T14:05:48;10.30;1.10
6355;DHT22;3210;48.708;9.030;2023-04-01T14:08:28;10.40;3.00
6355;DHT22;3210;48.708;9.030;2023-04-01T14:11:07;10.50;10.30
6355;DHT22;3210;48.708;9.030;2023-04-01T14:13:41;10.60;6.20
6355;DHT22;3210;48.708;9.030;2023-04-01T14:16:21;10.50;9.10
6355;DHT22;3210;48.708;9.030;2023-04-01T14:19:02;10.50;1.80
6355;DHT22;3210;48.708;9.030;2023-04-01T14:21:37;10.40;8.50
6355;DHT22;3210;48.708;9.030;2023-04-01T14:27:39;10.30;5.90
6355;DHT22;3210;48.708;9.030;2023-04-01T14:30:34;10.40;8.50
6355;DHT22;3210;48.708;9.030;2023-04-01T14:33:10;10.40;2.40
6355;DHT22;3210;48.708;9.030;2023-04-01T14:35:41;10.40;2.50
6355;DHT22;3210;48.708;9.030;2023-04-01T14:38:31;10.40;4.60
6355;DHT22;3210;48.708;9.030;2023-04-01T14:41:16;10.40;1.00
6355;DHT22;3210;48.708;9.030;2023-04-01T14:44:11;10.20;1.00
6355;DHT22;3210;48.708;9.030;2023-04-01T14:47:15;10.20;1.00
6355;DHT22;3210;48.708;9.030;2023-04-01T14:49:47;10.10;1.00
6355;DHT22;3210;48.708;9.030;2023-04-01T14:52:22;9.90;1.00
6355;DHT22;3210;48.708;9.030;2023-04-01T14:54:51;10.00;1.00
6355;DHT22;3210;48.708;9.030;2023-04-01T14:57:24;10.00;1.00
6355;DHT22;3210;48.708;9.030;2023-04-01T14:59:54;10.10;1.00
6355;DHT22;3210;48.708;9.030;2023-04-01T15:02:40;10.00;1.00
6355;DHT22;3210;48.708;9.030;2023-04-01T15:05:15;10.00;1.00
6355;DHT22;3210;48.708;9.030;2023-04-01T15:08:10;10.00;1.00
6355;DHT22;3210;48.708;9.030;2023-04-01T15:14:00;10.10;4.70
6355;DHT22;3210;48.708;9.030;2023-04-01T15:16:31;10.10;5.50
6355;DHT22;3210;48.708;9.030;2023-04-01T15:19:09;10.10;1.30
6355;DHT22;3210;48.708;9.030;2023-04-01T15:21:52;10.00;1.00
6355;DHT22;3210;48.708;9.030;2023-04-01T15:24:25;9.90;1.00
6355;DHT22;3210;48.708;9.030;2023-04-01T15:27:06;9.90;2.10
6355;DHT22;3210;48.708;9.030;2023-04-01T15:29:51;9.90;1.00
6355;DHT22;3210;48.708;9.030;2023-04-01T15:32:29;9.90;4.00
6355;DHT22;3210;48.708;9.030;2023-04-01T15:35:08;10.00;5.60
6355;DHT22;3210;48.708;9.030;2023-04-01T15:37:48;10.00;1.80
6355;DHT22;3210;48.708;9.030;2023-04-01T15:40:22;9.90;1.00
6355;DHT22;3210;48.708;9.030;2023-04-01T15:43:01;10.00;1.00
6355;DHT22;3210;48.708;9.030;2023-04-01T15:45:38;9.90;1.00
6355;DHT22;3210;48.708;9.030;2023-04-01T15:48:18;9.80;1.00
6355;DHT22;3210;48.708;9.030;2023-04-01T15:50:58;9.70;1.00
6355;DHT22;3210;48.708;9.030;2023-04-01T15:53:44;9.70;4.20
6355;DHT22;3210;48.708;9.030;2023-04-01T15:56:22;9.70;10.90
6355;DHT22;3210;48.708;9.030;2023-04-01T15:59:01;9.70;11.00
6355;DHT22;3210;48.708;9.030;2023-04-01T16:01:41;9.70;17.40
6355;DHT22;3210;48.708;9.030;2023-04-01T16:04:26;9.60;21.30
6355;DHT22;3210;48.708;9.030;2023-04-01T16:07:10;9.50;23.70
6355;DHT22;3210;48.708;9.030;2023-04-01T16:10:04;9.30;27.90
6355;DHT22;3210;48.708;9.030;2023-04-01T16:12:44;9.40;22.30
6355;DHT22;3210;48.708;9.030;2023-04-01T16:15:22;9.40;25.20
6355;DHT22;3210;48.708;9.030;2023-04-01T16:18:10;9.20;19.70
6355;DHT22;3210;48.708;9.030;2023-04-01T16:20:49;9.20;27.40
6355;DHT22;3210;48.708;9.030;2023-04-01T16:23:22;9.20;29.90
6355;DHT22;3210;48.708;9.030;2023-04-01T16:25:57;9.30;31.00
6355;DHT22;3210;48.708;9.030;2023-04-01T16:28:28;9.30;31.30
6355;DHT22;3210;48.708;9.030;2023-04-01T16:30:59;9.20;28.30
6355;DHT22;3210;48.708;9.030;2023-04-01T16:33:38;9.20;27.70
6355;DHT22;3210;48.708;9.030;2023-04-01T16:36:12;9.20;25.10
6355;DHT22;3210;48.708;9.030;2023-04-01T16:38:46;9.30;26.40
6355;DHT22;3210;48.708;9.030;2023-04-01T16:41:19;9.20;27.30
6355;DHT22;3210;48.708;9.030;2023-04-01T16:43:48;9.40;28.00
6355;DHT22;3210;48.708;9.030;2023-04-01T16:46:33;9.20;23.40
6355;DHT22;3210;48.708;9.030;2023-04-01T16:49:29;9.40;19.50
6355;DHT22;3210;48.708;9.030;2023-04-01T16:52:12;9.40;18.00
6355;DHT22;3210;48.708;9.030;2023-04-01T16:54:44;9.30;20.10
6355;DHT22;3210;48.708;9.030;2023-04-01T16:57:18;9.40;18.20
6355;DHT22;3210;48.708;9.030;2023-04-01T16:59:48;9.40;19.70
6355;DHT22;3210;48.708;9.030;2023-04-01T17:02:24;9.50;18.20
6355;DHT22;3210;48.708;9.030;2023-04-01T17:04:59;9.40;18.10
6355;DHT22;3210;48.708;9.030;2023-04-01T17:07:34;9.40;16.40
6355;DHT22;3210;48.708;9.030;2023-04-01T17:10:25;9.30;16.90
6355;DHT22;3210;48.708;9.030;2023-04-01T17:13:18;9.30;16.60
6355;DHT22;3210;48.708;9.030;2023-04-01T17:15:57;9.30;15.70
6355;DHT22;3210;48.708;9.030;2023-04-01T17:18:35;9.30;16.50
6355;DHT22;3210;48.708;9.030;2023-04-01T17:21:09;9.30;19.20
6355;DHT22;3210;48.708;9.030;2023-04-01T17:23:40;9.20;19.60
6355;DHT22;3210;48.708;9.030;2023-04-01T17:26:20;9.30;16.10
6355;DHT22;3210;48.708;9.030;2023-04-01T17:28:53;9.30;14.70
6355;DHT22;3210;48.708;9.030;2023-04-01T17:31:38;9.30;15.20
6355;DHT22;3210;48.708;9.030;2023-04-01T17:34:37;9.20;14.60
6355;DHT22;3210;48.708;9.030;2023-04-01T17:37:22;9.20;16.30
6355;DHT22;3210;48.708;9.030;2023-04-01T17:40:08;9.30;20.50
6355;DHT22;3210;48.708;9.030;2023-04-01T17:42:42;9.40;17.30
6355;DHT22;3210;48.708;9.030;2023-04-01T17:45:21;9.60;24.90
6355;DHT22;3210;48.708;9.030;2023-04-01T17:47:57;9.60;9.10
6355;DHT22;3210;48.708;9.030;2023-04-01T17:50:35;9.60;11.30
6355;DHT22;3210;48.708;9.030;2023-04-01T17:53:20;9.60;14.30
6355;DHT22;3210;48.708;9.030;2023-04-01T17:56:01;9.60;20.40
6355;DHT22;3210;48.708;9.030;2023-04-01T17:58:32;9.60;22.70
6355;DHT22;3210;48.708;9.030;2023-04-01T18:01:26;9.60;23.30
6355;DHT22;3210;48.708;9.030;2023-04-01T18:04:10;9.50;29.10
6355;DHT22;3210;48.708;9.030;2023-04-01T18:06:53;9.50;32.90
6355;DHT22;3210;48.708;9.030;2023-04-01T18:09:32;9.40;36.00
6355;DHT22;3210;48.708;9.030;2023-04-01T18:12:11;9.40;41.10
6355;DHT22;3210;48.708;9.030;2023-04-01T18:15:08;9.30;49.20
6355;DHT22;3210;48.708;9.030;2023-04-01T18:17:44;9.20;49.20
6355;DHT22;3210;48.708;9.030;2023-04-01T18:20:29;8.90;37.70
6355;DHT22;3210;48.708;9.030;2023-04-01T18:23:00;8.80;44.40
6355;DHT22;3210;48.708;9.030;2023-04-01T18:25:33;8.70;44.00